createdAt,value
2023-03-02T00:00:04.052Z,46.8
2023-03-02T00:01:21.158Z,47.2
2023-03-02T00:02:38.263Z,47.2
2023-03-02T00:03:55.369Z,47.6
2023-03-02T00:06:29.579Z,53.3
2023-03-02T00:07:46.685Z,46.7
2023-03-02T00:09:02.807Z,46.8
2023-03-02T00:10:19.912Z,47.3
2023-03-02T00:11:37.018Z,67.1
2023-03-02T00:12:54.123Z,46.8
2023-03-02T00:14:11.228Z,47.3
2023-03-02T00:16:44.461Z,55.1
2023-03-02T00:18:00.587Z,47.6
2023-03-02T00:19:16.709Z,47.3
2023-03-02T00:20:33.814Z,47.8
2023-03-02T00:21:50.920Z,49.1
2023-03-02T00:23:08.025Z,49.1
2023-03-02T00:24:25.131Z,48.9
2023-03-02T00:25:42.236Z,48.5
2023-03-02T00:26:59.342Z,48.1
2023-03-02T00:29:32.574Z,47.3
2023-03-02T00:30:48.701Z,48.1
2023-03-02T00:32:04.822Z,48.9
2023-03-02T00:33:21.927Z,48.8
2023-03-02T00:34:39.034Z,47.3
2023-03-02T00:35:56.139Z,67.9
2023-03-02T00:37:13.245Z,48.1
2023-03-02T00:38:30.350Z,47.6
2023-03-02T00:39:47.455Z,48.5
2023-03-02T00:41:04.561Z,47.8
2023-03-02T00:42:21.666Z,47.3
2023-03-02T00:43:38.771Z,48
2023-03-02T00:44:55.877Z,47.5
2023-03-02T00:46:12.003Z,47.3
2023-03-02T00:47:28.125Z,47
2023-03-02T00:48:45.230Z,48
2023-03-02T00:50:02.336Z,48.1
2023-03-02T00:51:19.441Z,47.2
2023-03-02T00:52:36.547Z,47.2
2023-03-02T00:53:53.652Z,47.2
2023-03-02T00:55:10.758Z,47.6
2023-03-02T00:56:27.863Z,48.5
2023-03-02T00:57:44.969Z,47.2
2023-03-02T01:00:19.180Z,47.8
2023-03-02T01:01:36.285Z,47.6
2023-03-02T01:02:53.391Z,53.6
2023-03-02T01:04:09.512Z,47.2
2023-03-02T01:05:26.618Z,47.5
2023-03-02T01:06:43.723Z,47
2023-03-02T01:08:00.829Z,47
2023-03-02T01:09:17.934Z,48.3
2023-03-02T01:10:35.040Z,48.9
2023-03-02T01:11:52.146Z,46.2
2023-03-02T01:13:09.251Z,46.7
2023-03-02T01:14:26.356Z,47
2023-03-02T01:15:43.462Z,51.8
2023-03-02T01:17:00.567Z,47.2
2023-03-02T01:18:17.673Z,48.6
2023-03-02T01:19:34.778Z,47
2023-03-02T01:20:50.900Z,46.7
2023-03-02T01:22:08.003Z,53.4
2023-03-02T01:23:25.109Z,47.2
2023-03-02T01:24:42.214Z,47
2023-03-02T01:25:59.320Z,47.2
2023-03-02T01:27:16.425Z,49.7
2023-03-02T01:28:33.531Z,48.6
2023-03-02T01:29:50.636Z,48.9
2023-03-02T01:31:07.742Z,47.8
2023-03-02T01:32:24.847Z,48.1
2023-03-02T01:33:41.953Z,47.6
2023-03-02T01:34:59.059Z,47.8
2023-03-02T01:36:16.164Z,48.8
2023-03-02T01:37:32.286Z,47.6
2023-03-02T01:38:49.391Z,47
2023-03-02T01:40:06.497Z,47.2
2023-03-02T01:41:23.603Z,62.8
2023-03-02T01:42:40.709Z,48.5
2023-03-02T01:43:57.814Z,66
2023-03-02T01:45:14.920Z,46.8
2023-03-02T01:46:32.026Z,46.7
2023-03-02T01:47:49.131Z,46.7
2023-03-02T01:49:06.237Z,46.4
2023-03-02T01:50:23.342Z,61.3
2023-03-02T01:51:40.448Z,63.8
2023-03-02T01:52:57.554Z,56.2
2023-03-02T01:54:14.659Z,50.9
2023-03-02T01:55:30.781Z,49.6
2023-03-02T01:56:47.887Z,47.2
2023-03-02T01:58:04.992Z,46.4
2023-03-02T01:59:22.098Z,48.6
2023-03-02T02:00:39.203Z,50.4
2023-03-02T02:01:56.310Z,51.5
2023-03-02T02:03:13.415Z,49.1
2023-03-02T02:04:30.520Z,47.6
2023-03-02T02:05:47.626Z,47.2
2023-03-02T02:07:04.732Z,47.5
2023-03-02T02:08:21.837Z,46.8
2023-03-02T02:09:38.943Z,47.2
2023-03-02T02:10:56.048Z,48
2023-03-02T02:12:12.170Z,47.8
2023-03-02T02:13:29.275Z,51.8
2023-03-02T02:14:46.381Z,48.1
2023-03-02T02:16:03.486Z,47.5
2023-03-02T02:17:20.591Z,46.2
2023-03-02T02:18:37.697Z,49.7
2023-03-02T02:19:54.803Z,49.1
2023-03-02T02:21:11.908Z,48.9
2023-03-02T02:22:29.014Z,47.2
2023-03-02T02:23:46.119Z,46.7
2023-03-02T02:25:03.225Z,48.5
2023-03-02T02:26:20.330Z,48.1
2023-03-02T02:27:37.435Z,48.1
2023-03-02T02:28:53.557Z,51.5
2023-03-02T02:30:10.663Z,59.1
2023-03-02T02:31:27.768Z,49.3
2023-03-02T02:32:44.874Z,49.9
2023-03-02T02:34:01.979Z,49.4
2023-03-02T02:35:19.085Z,49.7
2023-03-02T02:36:36.188Z,48.3
2023-03-02T02:37:53.294Z,55.4
2023-03-02T02:39:10.400Z,47.8
2023-03-02T02:40:27.505Z,48.3
2023-03-02T02:41:44.612Z,51.5
2023-03-02T02:43:01.717Z,48.6
2023-03-02T02:44:18.823Z,64.7
2023-03-02T02:45:34.944Z,64.7
2023-03-02T02:46:52.050Z,48.6
2023-03-02T02:48:09.155Z,49.9
2023-03-02T02:49:26.261Z,49.1
2023-03-02T02:50:43.366Z,47.8
2023-03-02T02:52:00.472Z,47.3
2023-03-02T02:53:17.577Z,48
2023-03-02T02:55:51.788Z,48.3
2023-03-02T02:57:08.894Z,47.2
2023-03-02T02:58:25.999Z,48.1
2023-03-02T02:59:43.105Z,48.3
2023-03-02T03:01:00.210Z,48.9
2023-03-02T03:02:16.332Z,58.1
2023-03-02T03:03:33.438Z,57.2
2023-03-02T03:04:50.543Z,47.6
2023-03-02T03:06:07.649Z,48.1
2023-03-02T03:07:24.754Z,47.8
2023-03-02T03:08:41.860Z,53.9
2023-03-02T03:09:58.965Z,52.5
2023-03-02T03:11:16.071Z,47.3
2023-03-02T03:12:33.176Z,49.7
2023-03-02T03:13:50.282Z,49.9
2023-03-02T03:15:07.387Z,74.9
2023-03-02T03:16:24.493Z,48.5
2023-03-02T03:18:58.704Z,48.8
2023-03-02T03:20:14.825Z,48.9
2023-03-02T03:21:31.931Z,49.7
2023-03-02T03:22:49.036Z,50.4
2023-03-02T03:24:06.141Z,61.7
2023-03-02T03:25:23.247Z,49.4
2023-03-02T03:26:40.353Z,55.4
2023-03-02T03:27:57.458Z,48
2023-03-02T03:29:14.564Z,70.5
2023-03-02T03:30:31.669Z,57.6
2023-03-02T03:31:48.775Z,50.2
2023-03-02T03:33:05.880Z,54.3
2023-03-02T03:34:22.985Z,60.5
2023-03-02T03:35:40.091Z,55.2
2023-03-02T03:36:56.213Z,63.9
2023-03-02T03:38:13.318Z,48.5
2023-03-02T03:39:30.424Z,49.4
2023-03-02T03:40:47.529Z,56.2
2023-03-02T03:42:04.635Z,59.6
2023-03-02T03:43:21.740Z,55.5
2023-03-02T03:44:38.846Z,53.8
2023-03-02T03:45:55.951Z,66.2
2023-03-02T03:47:13.057Z,63.6
2023-03-02T03:48:30.162Z,60.7
2023-03-02T03:49:47.268Z,48.6
2023-03-02T03:51:04.373Z,59.7
2023-03-02T03:52:21.479Z,62.6
2023-03-02T03:53:37.601Z,49.4
2023-03-02T03:54:54.706Z,51.4
2023-03-02T03:56:11.812Z,52
2023-03-02T03:57:28.918Z,49.7
2023-03-02T03:58:46.024Z,48.5
2023-03-02T04:00:03.129Z,64.4
2023-03-02T04:01:20.235Z,59.2
2023-03-02T04:02:37.340Z,58.8
2023-03-02T04:03:54.446Z,64.9
2023-03-02T04:05:11.550Z,55.5
2023-03-02T04:06:28.655Z,53.8
2023-03-02T04:07:45.761Z,68.4
2023-03-02T04:09:02.867Z,50.4
2023-03-02T04:10:18.989Z,60.2
2023-03-02T04:11:36.095Z,56.2
2023-03-02T04:12:53.200Z,59.7
2023-03-02T04:14:10.306Z,69.1
2023-03-02T04:15:27.411Z,55.7
2023-03-02T04:16:44.517Z,63.6
2023-03-02T04:18:01.623Z,64.9
2023-03-02T04:19:18.728Z,64.6
2023-03-02T04:20:35.834Z,74.2
2023-03-02T04:21:52.940Z,55.1
2023-03-02T04:23:10.045Z,67.1
2023-03-02T04:24:27.151Z,60.7
2023-03-02T04:25:44.257Z,63.9
2023-03-02T04:27:00.379Z,61.2
2023-03-02T04:28:17.484Z,55.4
2023-03-02T04:29:34.590Z,63.3
2023-03-02T04:30:51.695Z,65.5
2023-03-02T04:32:07.822Z,57.6
2023-03-02T04:33:23.944Z,69.7
2023-03-02T04:34:40.071Z,64.9
2023-03-02T04:35:57.177Z,63.8
2023-03-02T04:37:13.298Z,63.6
2023-03-02T04:38:30.404Z,64.4
2023-03-02T04:39:47.509Z,61.8
2023-03-02T04:41:04.615Z,68.8
2023-03-02T04:42:21.721Z,63.9
2023-03-02T04:43:38.826Z,59.9
2023-03-02T04:44:55.932Z,60.7
2023-03-02T04:46:13.037Z,65.7
2023-03-02T04:47:30.144Z,67.6
2023-03-02T04:48:47.249Z,60.4
2023-03-02T04:51:21.461Z,54.7
2023-03-02T04:52:38.566Z,58.8
2023-03-02T04:53:54.688Z,55.7
2023-03-02T04:55:11.794Z,68.9
2023-03-02T04:56:28.900Z,52.6
2023-03-02T04:57:46.005Z,59.4
2023-03-02T04:59:03.109Z,68.1
2023-03-02T05:00:20.215Z,56.2
2023-03-02T05:01:37.321Z,60.7
2023-03-02T05:02:54.427Z,55.1
2023-03-02T05:04:11.533Z,61.7
2023-03-02T05:05:28.638Z,67
2023-03-02T05:06:45.744Z,67.3
2023-03-02T05:08:02.850Z,73.6
2023-03-02T05:09:19.956Z,61
2023-03-02T05:10:36.078Z,63.9
2023-03-02T05:11:53.184Z,66.5
2023-03-02T05:13:10.289Z,58.8
2023-03-02T05:14:27.395Z,53.6
2023-03-02T05:15:44.501Z,65.9
2023-03-02T05:17:01.607Z,61.2
2023-03-02T05:18:18.712Z,59.6
2023-03-02T05:19:35.818Z,72.1
2023-03-02T05:20:52.924Z,65
2023-03-02T05:22:10.030Z,60.7
2023-03-02T05:23:27.136Z,58.1
2023-03-02T05:24:44.242Z,54.9
2023-03-02T05:26:01.348Z,67.5
2023-03-02T05:27:17.469Z,60.4
2023-03-02T05:28:34.575Z,64.9
2023-03-02T05:29:51.681Z,60.7
2023-03-02T05:31:08.787Z,67.9
2023-03-02T05:32:25.893Z,69.7
2023-03-02T05:33:42.999Z,76.6
2023-03-02T05:35:00.105Z,60.1
2023-03-02T05:36:17.211Z,70.2
2023-03-02T05:37:34.316Z,57.6
2023-03-02T05:38:51.422Z,66.8
2023-03-02T05:40:08.528Z,61.7
2023-03-02T05:41:25.634Z,64.9
2023-03-02T05:42:42.740Z,69.4
2023-03-02T05:45:15.967Z,61
2023-03-02T05:46:33.073Z,61.7
2023-03-02T05:47:50.179Z,67.5
2023-03-02T05:49:07.285Z,67.9
2023-03-02T05:50:24.391Z,72.3
2023-03-02T05:51:41.496Z,71.3
2023-03-02T05:52:58.602Z,67.9
2023-03-02T05:54:15.708Z,62.5
2023-03-02T05:55:32.814Z,66
2023-03-02T05:56:49.920Z,68.3
2023-03-02T05:58:07.026Z,67.8
2023-03-02T05:59:24.132Z,68.4
2023-03-02T06:00:41.237Z,68.4
2023-03-02T06:01:57.359Z,79.1
2023-03-02T06:03:14.465Z,77.8
2023-03-02T06:04:31.571Z,63.9
2023-03-02T06:05:48.675Z,67.3
2023-03-02T06:08:22.887Z,66.8
2023-03-02T06:09:39.993Z,66.2
2023-03-02T06:10:57.098Z,69.9
2023-03-02T06:12:14.204Z,67.8
2023-03-02T06:13:31.310Z,71
2023-03-02T06:14:48.416Z,65.9
2023-03-02T06:16:05.522Z,66.3
2023-03-02T06:17:22.628Z,66.7
2023-03-02T06:18:38.750Z,69.9
2023-03-02T06:19:55.856Z,67.1
2023-03-02T06:21:12.962Z,71.5
2023-03-02T06:23:47.173Z,65.4
2023-03-02T06:25:04.279Z,65.5
2023-03-02T06:26:21.384Z,67.8
2023-03-02T06:27:38.490Z,61
2023-03-02T06:28:55.596Z,61.2
2023-03-02T06:31:29.808Z,64.6
2023-03-02T06:32:45.934Z,66.7
2023-03-02T06:34:02.056Z,63.9
2023-03-02T06:35:19.162Z,71.8
2023-03-02T06:36:36.267Z,65.2
2023-03-02T06:37:53.373Z,70.7
2023-03-02T06:39:10.479Z,66.2
2023-03-02T06:40:27.585Z,67.5
2023-03-02T06:41:44.691Z,66.7
2023-03-02T06:43:01.797Z,66.2
2023-03-02T06:44:18.902Z,73.4
2023-03-02T06:46:53.114Z,78.3
2023-03-02T06:48:10.219Z,78.3
2023-03-02T06:49:27.325Z,74.6
2023-03-02T06:50:43.446Z,76.6
2023-03-02T06:52:00.552Z,63.1
2023-03-02T06:53:17.657Z,72.1
2023-03-02T06:54:34.763Z,66.2
2023-03-02T06:55:51.868Z,74.9
2023-03-02T06:57:08.973Z,67
2023-03-02T06:58:26.079Z,64.9
2023-03-02T06:59:43.184Z,62
2023-03-02T07:01:00.290Z,68.6
2023-03-02T07:02:17.395Z,69.1
2023-03-02T07:03:33.522Z,70
2023-03-02T07:04:49.643Z,67.1
2023-03-02T07:06:06.748Z,66.7
2023-03-02T07:07:23.854Z,65.9
2023-03-02T07:08:40.959Z,66.8
2023-03-02T07:09:58.064Z,67.9
2023-03-02T07:11:15.169Z,66.2
2023-03-02T07:12:32.274Z,65.5
2023-03-02T07:13:49.379Z,61.2
2023-03-02T07:15:06.485Z,69.4
2023-03-02T07:16:23.589Z,64.6
2023-03-02T07:17:40.694Z,62.6
2023-03-02T07:18:57.799Z,62.3
2023-03-02T07:20:14.904Z,64.7
2023-03-02T07:21:31.025Z,62.1
2023-03-02T07:22:48.130Z,64.9
2023-03-02T07:24:05.235Z,60.5
2023-03-02T07:25:22.340Z,63
2023-03-02T07:26:39.445Z,69.9
2023-03-02T07:29:13.654Z,60.9
2023-03-02T07:30:30.759Z,64.2
2023-03-02T07:31:47.864Z,62.6
2023-03-02T07:33:04.969Z,63.9
2023-03-02T07:34:22.073Z,66.8
2023-03-02T07:35:39.178Z,60.2
2023-03-02T07:36:56.283Z,61.7
2023-03-02T07:38:12.403Z,57.2
2023-03-02T07:39:29.508Z,63.4
2023-03-02T07:40:46.612Z,60.1
2023-03-02T07:42:03.717Z,69.1
2023-03-02T07:43:20.821Z,63.4
2023-03-02T07:44:37.926Z,64.7
2023-03-02T07:45:55.031Z,56.2
2023-03-02T07:47:12.135Z,67.6
2023-03-02T07:48:29.240Z,58.1
2023-03-02T07:49:46.345Z,64.7
2023-03-02T07:51:03.449Z,60.7
2023-03-02T07:52:20.554Z,62
2023-03-02T07:53:37.659Z,58.8
2023-03-02T07:54:53.780Z,65
2023-03-02T07:56:10.884Z,67.9
2023-03-02T07:57:27.988Z,66.5
2023-03-02T07:58:45.092Z,59.7
2023-03-02T08:00:02.197Z,70.4
2023-03-02T08:01:19.301Z,63.8
2023-03-02T08:02:36.406Z,67.3
2023-03-02T08:03:53.510Z,63.9
2023-03-02T08:05:10.614Z,63.3
2023-03-02T08:06:27.719Z,64.6
2023-03-02T08:07:44.823Z,63.3
2023-03-02T08:09:01.927Z,63.9
2023-03-02T08:11:36.137Z,64.4
2023-03-02T08:12:52.257Z,62
2023-03-02T08:15:26.466Z,63
2023-03-02T08:16:43.571Z,61.8
2023-03-02T08:18:00.675Z,61.2
2023-03-02T08:19:17.780Z,62.1
2023-03-02T08:20:34.884Z,60.9
2023-03-02T08:21:51.989Z,60.2
2023-03-02T08:23:09.093Z,63.1
2023-03-02T08:24:26.198Z,56.3
2023-03-02T08:25:43.302Z,71.3
2023-03-02T08:27:00.406Z,61.2
2023-03-02T08:28:16.527Z,64.6
2023-03-02T08:29:33.631Z,63.1
2023-03-02T08:30:50.735Z,65.2
2023-03-02T08:32:07.839Z,69.2
2023-03-02T08:33:24.944Z,61.2
2023-03-02T08:34:42.048Z,59.4
2023-03-02T08:35:59.152Z,60.7
2023-03-02T08:37:16.257Z,58.3
2023-03-02T08:38:33.361Z,58.6
2023-03-02T08:39:50.465Z,65.4
2023-03-02T08:42:24.674Z,61.7
2023-03-02T08:43:41.779Z,62.5
2023-03-02T08:44:57.900Z,60.2
2023-03-02T08:46:15.004Z,64.4
2023-03-02T08:47:32.108Z,61.3
2023-03-02T08:50:06.317Z,60.9
2023-03-02T08:51:23.422Z,58.1
2023-03-02T08:52:40.526Z,63.8
2023-03-02T08:53:57.631Z,59.1
2023-03-02T08:55:14.735Z,62.1
2023-03-02T08:56:31.840Z,55.4
2023-03-02T08:57:48.944Z,63.6
2023-03-02T08:59:06.047Z,63.3
2023-03-02T09:00:23.151Z,66.5
2023-03-02T09:01:39.277Z,67
2023-03-02T09:02:55.398Z,61.2
2023-03-02T09:04:12.502Z,65.9
2023-03-02T09:05:29.607Z,55.5
2023-03-02T09:06:45.732Z,56.5
2023-03-02T09:09:18.957Z,62
2023-03-02T09:10:36.062Z,60.7
2023-03-02T09:11:53.166Z,61.8
2023-03-02T09:13:10.270Z,67
2023-03-02T09:14:27.374Z,60.4
2023-03-02T09:15:44.479Z,58.8
2023-03-02T09:17:01.583Z,61.3
2023-03-02T09:18:18.687Z,64.7
2023-03-02T09:19:35.791Z,62.6
2023-03-02T09:20:52.896Z,68.6
2023-03-02T09:22:10.000Z,67.5
2023-03-02T09:23:27.104Z,61.7
2023-03-02T09:24:43.225Z,64.1
2023-03-02T09:26:00.329Z,58.1
2023-03-02T09:27:17.433Z,58.6
2023-03-02T09:28:34.537Z,64.2
2023-03-02T09:29:51.641Z,60.4
2023-03-02T09:31:08.746Z,63.4
2023-03-02T09:32:25.850Z,64.4
2023-03-02T09:33:42.955Z,61.3
2023-03-02T09:35:00.059Z,59.6
2023-03-02T09:36:17.163Z,66.5
2023-03-02T09:37:33.289Z,67
2023-03-02T09:38:49.409Z,59.2
2023-03-02T09:40:05.535Z,68.1
2023-03-02T09:41:21.655Z,65.2
2023-03-02T09:42:38.759Z,63.6
2023-03-02T09:43:55.864Z,65.4
2023-03-02T09:45:12.968Z,62
2023-03-02T09:46:30.072Z,61.7
2023-03-02T09:47:47.177Z,60.7
2023-03-02T09:49:04.281Z,60.4
2023-03-02T09:50:21.386Z,63.8
2023-03-02T09:51:38.490Z,61.7
2023-03-02T09:52:55.595Z,67.5
2023-03-02T09:54:12.699Z,62.6
2023-03-02T09:55:29.804Z,59.2
2023-03-02T09:56:46.908Z,61.7
2023-03-02T09:58:03.029Z,61.7
2023-03-02T09:59:20.134Z,62.6
2023-03-02T10:01:54.342Z,64.1
2023-03-02T10:03:11.447Z,62.1
2023-03-02T10:04:28.551Z,60.2
2023-03-02T10:05:45.656Z,68.3
2023-03-02T10:07:02.760Z,60.5
2023-03-02T10:08:19.865Z,58.9
2023-03-02T10:09:36.970Z,57
2023-03-02T10:10:54.074Z,61.3
2023-03-02T10:12:11.179Z,56.5
2023-03-02T10:13:28.283Z,62.5
2023-03-02T10:14:44.404Z,61.7
2023-03-02T10:16:01.508Z,59.7
2023-03-02T10:17:18.613Z,59.7
2023-03-02T10:18:35.717Z,58.3
2023-03-02T10:19:52.822Z,54.3
2023-03-02T10:21:09.927Z,56.5
2023-03-02T10:22:27.031Z,56.5
2023-03-02T10:23:44.136Z,61.8
2023-03-02T10:25:01.240Z,63.4
2023-03-02T10:26:18.345Z,66.2
2023-03-02T10:27:35.449Z,60.2
2023-03-02T10:28:52.554Z,62.6
2023-03-02T10:30:09.658Z,58.9
2023-03-02T10:31:25.779Z,63.6
2023-03-02T10:32:42.883Z,63.8
2023-03-02T10:33:59.988Z,64.4
2023-03-02T10:35:17.093Z,61.3
2023-03-02T10:37:51.301Z,63.8
2023-03-02T10:39:08.406Z,58.1
2023-03-02T10:40:25.510Z,63.3
2023-03-02T10:41:42.615Z,63.9
2023-03-02T10:42:59.719Z,63.8
2023-03-02T10:44:16.824Z,54.4
2023-03-02T10:45:33.928Z,68.4
2023-03-02T10:46:51.032Z,65.2
2023-03-02T10:48:07.152Z,58.8
2023-03-02T10:49:24.256Z,59.7
2023-03-02T10:50:41.361Z,67.8
2023-03-02T10:51:58.465Z,58.9
2023-03-02T10:53:15.569Z,53.3
2023-03-02T10:54:32.674Z,69.9
2023-03-02T10:55:49.779Z,56.5
2023-03-02T10:58:23.988Z,65
2023-03-02T10:59:41.092Z,62
2023-03-02T11:00:58.197Z,63
2023-03-02T11:02:15.301Z,77.3
2023-03-02T11:03:32.406Z,80
2023-03-02T11:04:48.527Z,59.7
2023-03-02T11:06:05.632Z,61.7
2023-03-02T11:07:22.736Z,60.5
2023-03-02T11:08:39.841Z,66.2
2023-03-02T11:09:56.945Z,59.1
2023-03-02T11:11:14.050Z,62.6
2023-03-02T11:12:31.155Z,64.2
2023-03-02T11:13:48.259Z,66.8
2023-03-02T11:15:05.364Z,61.8
2023-03-02T11:16:22.468Z,61
2023-03-02T11:17:39.573Z,59.7
2023-03-02T11:18:56.678Z,64.1
2023-03-02T11:20:13.783Z,64.4
2023-03-02T11:21:29.904Z,60.5
2023-03-02T11:22:47.008Z,61.3
2023-03-02T11:24:04.113Z,63.1
2023-03-02T11:25:21.218Z,65.5
2023-03-02T11:26:38.322Z,64.1
2023-03-02T11:27:55.427Z,54.1
2023-03-02T11:29:12.532Z,59.2
2023-03-02T11:30:29.636Z,68.1
2023-03-02T11:31:46.741Z,64.1
2023-03-02T11:33:03.845Z,65.5
2023-03-02T11:34:20.949Z,63.1
2023-03-02T11:35:38.055Z,65.2
2023-03-02T11:36:55.159Z,66.2
2023-03-02T11:38:11.280Z,60.2
2023-03-02T11:39:28.385Z,58.6
2023-03-02T11:40:45.489Z,60.9
2023-03-02T11:42:02.594Z,55.4
2023-03-02T11:43:19.698Z,58.4
2023-03-02T11:44:36.803Z,57
2023-03-02T11:45:53.907Z,60.1
2023-03-02T11:47:11.011Z,57.5
2023-03-02T11:48:28.116Z,61.7
2023-03-02T11:49:45.221Z,61.2
2023-03-02T11:51:02.325Z,62.8
2023-03-02T11:52:19.429Z,60.7
2023-03-02T11:53:36.534Z,60.9
2023-03-02T11:54:52.654Z,59.1
2023-03-02T11:56:09.759Z,60.2
2023-03-02T11:57:26.864Z,60.2
2023-03-02T11:58:43.969Z,64.2
2023-03-02T12:00:01.073Z,74.6
2023-03-02T12:01:18.178Z,64.1
2023-03-02T12:02:35.282Z,69.2
2023-03-02T12:03:52.387Z,64.1
2023-03-02T12:05:09.491Z,56.7
2023-03-02T12:06:26.596Z,63.4
2023-03-02T12:07:43.700Z,61.7
2023-03-02T12:09:00.804Z,59.6
2023-03-02T12:10:17.909Z,62.1
2023-03-02T12:11:34.029Z,57.5
2023-03-02T12:12:51.134Z,61.7
2023-03-02T12:14:08.239Z,56.7
2023-03-02T12:15:25.343Z,64.9
2023-03-02T12:16:42.448Z,67.9
2023-03-02T12:17:59.552Z,61.7
2023-03-02T12:19:16.657Z,63.3
2023-03-02T12:20:33.762Z,62.8
2023-03-02T12:21:50.866Z,54.6
2023-03-02T12:23:07.971Z,61.3
2023-03-02T12:24:25.076Z,63.4
2023-03-02T12:25:42.180Z,62.8
2023-03-02T12:26:59.284Z,60.1
2023-03-02T12:29:32.509Z,61.3
2023-03-02T12:30:49.614Z,60.7
2023-03-02T12:32:06.718Z,59.1
2023-03-02T12:33:23.823Z,60.7
2023-03-02T12:34:40.928Z,60.9
2023-03-02T12:35:58.032Z,63.8
2023-03-02T12:37:15.136Z,62.6
2023-03-02T12:38:32.241Z,62.1
2023-03-02T12:39:49.345Z,64.6
2023-03-02T12:41:06.450Z,60.1
2023-03-02T12:42:23.554Z,61
2023-03-02T12:43:40.658Z,62.6
2023-03-02T12:44:56.779Z,65.2
2023-03-02T12:46:12.900Z,64.4
2023-03-02T12:47:30.004Z,61
2023-03-02T12:48:47.109Z,60.7
2023-03-02T12:50:04.213Z,64.2
2023-03-02T12:51:21.318Z,62
2023-03-02T12:52:38.422Z,66.2
2023-03-02T12:53:55.526Z,55.9
2023-03-02T12:56:29.735Z,62.6
2023-03-02T12:57:46.840Z,64.6
2023-03-02T12:59:03.944Z,63.9
2023-03-02T13:00:21.049Z,65.2
2023-03-02T13:01:38.153Z,65.4
2023-03-02T13:02:54.274Z,59.4
2023-03-02T13:04:11.378Z,66.3
2023-03-02T13:05:28.483Z,61.2
2023-03-02T13:06:45.587Z,64.4
2023-03-02T13:08:02.692Z,58.3
2023-03-02T13:09:19.797Z,63.6
2023-03-02T13:10:36.901Z,62.8
2023-03-02T13:13:11.110Z,56.2
2023-03-02T13:14:28.214Z,63.6
2023-03-02T13:15:45.319Z,65.5
2023-03-02T13:17:02.423Z,61.7
2023-03-02T13:19:36.633Z,60.5
2023-03-02T13:20:52.759Z,67.1
2023-03-02T13:22:08.879Z,62.6
2023-03-02T13:23:25.984Z,64.4
2023-03-02T13:24:43.088Z,56.7
2023-03-02T13:26:00.193Z,62.6
2023-03-02T13:27:17.297Z,63.9
2023-03-02T13:28:34.402Z,65
2023-03-02T13:29:51.506Z,64.1
2023-03-02T13:31:08.611Z,60.7
2023-03-02T13:32:25.716Z,59.2
2023-03-02T13:33:42.820Z,60.4
2023-03-02T13:34:58.946Z,61.3
2023-03-02T13:36:15.066Z,61.7
2023-03-02T13:37:32.171Z,60.1
2023-03-02T13:38:49.275Z,62
2023-03-02T13:40:06.379Z,61.7
2023-03-02T13:41:23.484Z,59.4
2023-03-02T13:42:40.588Z,59.2
2023-03-02T13:43:57.693Z,63.1
2023-03-02T13:45:14.797Z,61
2023-03-02T13:46:31.902Z,62.5
2023-03-02T13:47:49.006Z,64.1
2023-03-02T13:49:06.111Z,60.2
2023-03-02T13:50:23.215Z,60.5
2023-03-02T13:51:40.320Z,59.9
2023-03-02T13:52:56.440Z,62.5
2023-03-02T13:54:13.545Z,62.6
2023-03-02T13:55:30.649Z,62.6
2023-03-02T13:56:47.754Z,60.5
2023-03-02T13:58:04.858Z,61.2
2023-03-02T13:59:21.964Z,71.7
2023-03-02T14:00:39.068Z,56.3
2023-03-02T14:01:56.173Z,60.5
2023-03-02T14:03:13.277Z,63.9
2023-03-02T14:04:30.382Z,63.4
2023-03-02T14:05:47.486Z,61.8
2023-03-02T14:07:04.591Z,57.8
2023-03-02T14:08:21.695Z,60.9
2023-03-02T14:09:37.816Z,63.6
2023-03-02T14:10:54.920Z,62.1
2023-03-02T14:12:12.025Z,63.4
2023-03-02T14:13:29.129Z,69.4
2023-03-02T14:14:46.234Z,60.7
2023-03-02T14:16:03.338Z,64.2
2023-03-02T14:17:20.443Z,63.1
2023-03-02T14:18:37.548Z,63.4
2023-03-02T14:19:54.652Z,61.3
2023-03-02T14:21:11.756Z,63.8
2023-03-02T14:22:28.861Z,60.9
2023-03-02T14:23:45.965Z,64.6
2023-03-02T14:25:03.070Z,66
2023-03-02T14:26:19.190Z,61.7
2023-03-02T14:27:36.295Z,60.5
2023-03-02T14:28:53.399Z,56.5
2023-03-02T14:30:10.504Z,58.8
2023-03-02T14:32:44.712Z,64.2
2023-03-02T14:34:01.817Z,62.5
2023-03-02T14:35:18.921Z,62.1
2023-03-02T14:36:36.026Z,63
2023-03-02T14:37:53.130Z,56.5
2023-03-02T14:39:10.234Z,64.7
2023-03-02T14:40:27.339Z,59.6
2023-03-02T14:41:44.443Z,65.4
2023-03-02T14:43:00.564Z,62.6
2023-03-02T14:44:17.668Z,63.6
2023-03-02T14:45:34.773Z,59.9
2023-03-02T14:46:51.877Z,60.9
2023-03-02T14:48:08.982Z,60.2
2023-03-02T14:49:26.086Z,64.1
2023-03-02T14:50:43.191Z,60.7
2023-03-02T14:52:00.296Z,61.3
2023-03-02T14:54:34.505Z,61.2
2023-03-02T14:55:51.609Z,57.2
2023-03-02T14:57:08.714Z,66
2023-03-02T14:58:25.818Z,59.2
2023-03-02T14:59:41.939Z,61
2023-03-02T15:00:59.044Z,62.6
2023-03-02T15:02:16.148Z,64.2
2023-03-02T15:03:33.253Z,57.2
2023-03-02T15:04:50.357Z,58
2023-03-02T15:06:07.462Z,60.2
2023-03-02T15:07:24.566Z,57.8
2023-03-02T15:08:41.671Z,60.4
2023-03-02T15:09:58.775Z,60.4
2023-03-02T15:11:15.880Z,59.6
2023-03-02T15:12:32.984Z,63.4
2023-03-02T15:13:50.089Z,60.5
2023-03-02T15:15:07.194Z,59.4
2023-03-02T15:16:23.314Z,57.6
2023-03-02T15:17:40.419Z,59.4
2023-03-02T15:18:57.523Z,58.6
2023-03-02T15:20:14.628Z,58.8
2023-03-02T15:21:31.732Z,64.6
2023-03-02T15:22:48.837Z,64.4
2023-03-02T15:24:05.941Z,66.3
2023-03-02T15:25:23.046Z,71.5
2023-03-02T15:26:40.151Z,60.1
2023-03-02T15:27:57.256Z,61.8
2023-03-02T15:29:14.359Z,56
2023-03-02T15:30:31.463Z,63.8
2023-03-02T15:31:48.568Z,61.3
2023-03-02T15:33:04.688Z,62.1
2023-03-02T15:34:21.793Z,64.6
2023-03-02T15:35:38.898Z,64.1
2023-03-02T15:38:13.107Z,66
2023-03-02T15:39:30.212Z,58.8
2023-03-02T15:40:47.316Z,64.2
2023-03-02T15:42:04.421Z,59.1
2023-03-02T15:43:21.526Z,61.7
2023-03-02T15:45:55.735Z,60.9
2023-03-02T15:47:12.840Z,66.7
2023-03-02T15:48:29.944Z,61.7
2023-03-02T15:49:46.065Z,60.9
2023-03-02T15:51:03.169Z,62.8
2023-03-02T15:52:20.274Z,59.7
2023-03-02T15:53:37.378Z,59.1
2023-03-02T15:54:54.483Z,62.6
2023-03-02T15:56:11.587Z,63.6
2023-03-02T15:57:28.692Z,61.7
2023-03-02T15:58:45.796Z,60.9
2023-03-02T16:00:02.901Z,61.3
2023-03-02T16:01:20.005Z,59.9
2023-03-02T16:03:54.214Z,60.7
2023-03-02T16:05:10.340Z,59.7
2023-03-02T16:06:26.461Z,58.8
2023-03-02T16:07:43.565Z,60.7
2023-03-02T16:09:00.670Z,64.6
2023-03-02T16:10:17.774Z,60.2
2023-03-02T16:11:34.879Z,60.1
2023-03-02T16:12:51.983Z,60.5
2023-03-02T16:14:09.088Z,61.5
2023-03-02T16:15:26.192Z,59.7
2023-03-02T16:16:43.297Z,58.9
2023-03-02T16:18:00.401Z,63
2023-03-02T16:19:16.527Z,63.3
2023-03-02T16:20:33.632Z,67.8
2023-03-02T16:21:49.752Z,65.4
2023-03-02T16:23:06.857Z,65.5
2023-03-02T16:24:23.962Z,60.4
2023-03-02T16:25:41.066Z,62.3
2023-03-02T16:26:58.170Z,60.1
2023-03-02T16:28:15.275Z,56.7
2023-03-02T16:29:32.380Z,65.7
2023-03-02T16:30:49.484Z,69.9
2023-03-02T16:32:06.589Z,65.9
2023-03-02T16:33:23.693Z,59.7
2023-03-02T16:34:40.798Z,65.5
2023-03-02T16:35:57.903Z,60.2
2023-03-02T16:37:15.007Z,58.8
2023-03-02T16:38:32.112Z,61
2023-03-02T16:39:48.233Z,65.2
2023-03-02T16:41:05.337Z,62.1
2023-03-02T16:42:22.442Z,59.1
2023-03-02T16:43:39.547Z,62
2023-03-02T16:44:56.651Z,61.7
2023-03-02T16:46:13.756Z,64.7
2023-03-02T16:47:30.861Z,62.6
2023-03-02T16:48:47.966Z,64.1
2023-03-02T16:50:05.071Z,64.9
2023-03-02T16:51:22.176Z,60.4
2023-03-02T16:52:39.280Z,58.9
2023-03-02T16:53:56.385Z,66.2
2023-03-02T16:55:13.490Z,62.1
2023-03-02T16:56:29.611Z,62
2023-03-02T16:57:46.716Z,62.6
2023-03-02T16:59:03.821Z,65.2
2023-03-02T17:00:20.926Z,62.5
2023-03-02T17:01:38.031Z,76
2023-03-02T17:02:55.136Z,77.8
2023-03-02T17:04:11.257Z,65.4
2023-03-02T17:05:28.361Z,63.6
2023-03-02T17:06:45.467Z,63.8
2023-03-02T17:08:02.572Z,66.3
2023-03-02T17:09:19.677Z,65.2
2023-03-02T17:10:36.782Z,66.3
2023-03-02T17:11:53.887Z,59.4
2023-03-02T17:13:10.992Z,60.7
2023-03-02T17:14:28.097Z,63
2023-03-02T17:15:45.201Z,63.1
2023-03-02T17:17:02.306Z,63.3
2023-03-02T17:18:19.411Z,62.6
2023-03-02T17:19:36.516Z,66.2
2023-03-02T17:20:52.637Z,65.5
2023-03-02T17:22:09.742Z,62.5
2023-03-02T17:23:26.846Z,62.6
2023-03-02T17:24:43.951Z,62.6
2023-03-02T17:26:01.056Z,57.6
2023-03-02T17:27:18.161Z,69.2
2023-03-02T17:28:35.265Z,59.2
2023-03-02T17:29:52.370Z,66
2023-03-02T17:31:09.475Z,66.5
2023-03-02T17:32:26.580Z,72.1
2023-03-02T17:33:43.685Z,62.5
2023-03-02T17:35:00.789Z,66.2
2023-03-02T17:36:17.894Z,64.6
2023-03-02T17:37:34.015Z,58.6
2023-03-02T17:38:51.120Z,59.6
2023-03-02T17:40:08.225Z,72.5
2023-03-02T17:41:25.329Z,63.6
2023-03-02T17:42:42.434Z,60.9
2023-03-02T17:43:59.539Z,60.2
2023-03-02T17:45:16.644Z,66.8
2023-03-02T17:46:33.749Z,64.7
2023-03-02T17:47:50.853Z,65.9